WetterOnline ( https://www.wetteronline.at )

Wetter aktuell Traunstein

Aktuelles Wetter: Chieming (553m)

6-stündlich | Neueste Meldungen
Ortszeit Temperatur Wetter
Sa, 03.12. 1:00 0.5° C bedeckt
Fr, 02.12. 19:00 0.3° C wolkig
Fr, 02.12. 13:00 1.9° C leichter Regen
Fr, 02.12. 7:00 1.4° C bedeckt
Fr, 02.12. 1:00 1.6° C bedeckt
Do, 01.12. 19:00 1.8° C bedeckt
Do, 01.12. 13:00 2.2° C bedeckt
Do, 01.12. 7:00 0.5° C bedeckt
Ortszeit Temperatur Wetter
Sa, 03.12. 1:00 0.5° C bedeckt
Sa, 03.12. 0:50 0.5° C Dunst
Sa, 03.12. 0:40 0.4° C Dunst
Sa, 03.12. 0:30 0.3° C bedeckt
Sa, 03.12. 0:20 0.3° C Dunst
Sa, 03.12. 0:10 0.2° C Dunst
Sa, 03.12. 0:00 0.2° C Nebel
Fr, 02.12. 23:30 0.1° C Nebel
Fr, 02.12. 23:00 0.1° C Nebel
Fr, 02.12. 22:30 0.1° C bedeckt
Fr, 02.12. 22:00 0.4° C bedeckt
Ortszeit Relative Feuchte Sichtweite
Sa, 03.12. 1:00 98% 5.0 km
Fr, 02.12. 19:00 96% 7 km
Fr, 02.12. 13:00 93% 5.0 km
Fr, 02.12. 7:00 96% 3.7 km
Fr, 02.12. 1:00 96% 4.1 km
Do, 01.12. 19:00 94% 6 km
Do, 01.12. 13:00 87% 9 km
Do, 01.12. 7:00 95% 4.9 km
Ortszeit Relative Feuchte Sichtweite
Sa, 03.12. 1:00 98% 5.0 km
Sa, 03.12. 0:50 98% -
Sa, 03.12. 0:40 99% -
Sa, 03.12. 0:30 99% 4.2 km
Sa, 03.12. 0:20 99% -
Sa, 03.12. 0:10 99% -
Sa, 03.12. 0:00 99% 3.2 km
Fr, 02.12. 23:30 100% 1.3 km
Fr, 02.12. 23:00 100% 0.5 km
Fr, 02.12. 22:30 99% 2.5 km
Fr, 02.12. 22:00 98% 5.0 km
Ortszeit Niederschlagsmenge Niederschlagsart
Sa, 03.12. 1:00 0.0 l/m2 in 6 Std. -
Fr, 02.12. 19:00 0.5 l/m2 in 12 Std. Regen
Fr, 02.12. 13:00 0.3 l/m2 in 6 Std. Regen
Fr, 02.12. 7:00 0.1 l/m2 in 12 Std. -
Fr, 02.12. 1:00 0.1 l/m2 in 6 Std. Sprühregen
Do, 01.12. 19:00 0.0 l/m2 in 12 Std. -
Do, 01.12. 13:00 0.0 l/m2 in 6 Std. -
Do, 01.12. 7:00 0.1 l/m2 in 12 Std. Schnee
Ortszeit Niederschlagsmenge Niederschlagsart
Sa, 03.12. 1:00 0.0 l/m2 in 1 Std. -
Sa, 03.12. 0:50 keine Meldung -
Sa, 03.12. 0:40 keine Meldung -
Sa, 03.12. 0:30 0.0 l/m2 in 30 Min -
Sa, 03.12. 0:20 keine Meldung -
Sa, 03.12. 0:10 keine Meldung -
Sa, 03.12. 0:00 0.0 l/m2 in 1 Std. -
Fr, 02.12. 23:30 0.0 l/m2 in 30 Min -
Fr, 02.12. 23:00 0.0 l/m2 in 1 Std. -
Fr, 02.12. 22:30 0.0 l/m2 in 30 Min -
Fr, 02.12. 22:00 0.0 l/m2 in 1 Std. -
Ortszeit Stärke Spitze Richtung
km/h Bft. km/h Grad Sektor
Sa, 03.12. 1:00 9 2 19 60° NO
Fr, 02.12. 19:00 7 2 11 80° O
Fr, 02.12. 13:00 7 2 11 70° O
Fr, 02.12. 7:00 7 2 11 50° NO
Fr, 02.12. 1:00 4 1 7 60° NO
Do, 01.12. 19:00 4 1 14 90° O
Do, 01.12. 13:00 6 1 9 40° NO
Do, 01.12. 7:00 4 1 11 80° O
Ortszeit Stärke Spitze Richtung
km/h Bft. km/h Grad Sektor
Sa, 03.12. 1:00 9 2 17 60° NO
Sa, 03.12. 0:50 9 2 - 60° NO
Sa, 03.12. 0:40 11 2 - 70° O
Sa, 03.12. 0:30 11 2 18 60° NO
Sa, 03.12. 0:20 11 2 - 60° NO
Sa, 03.12. 0:10 11 2 - 60° NO
Sa, 03.12. 0:00 11 2 18 60° NO
Fr, 02.12. 23:30 11 2 18 70° O
Fr, 02.12. 23:00 13 3 17 60° NO
Fr, 02.12. 22:30 9 2 17 70° O
Fr, 02.12. 22:00 11 2 14 70° O
Ortszeit Untergrenze Bedeckung Gattung
total tief tief mittel hoch
Sa, 03.12. 1:00 90 m 8/8 8/8 - - -
Fr, 02.12. 19:00 750 m 8/8 3/8 - - -
Fr, 02.12. 13:00 150 m 5/8 5/8 - - -
Fr, 02.12. 7:00 120 m 8/8 8/8 - - -
Fr, 02.12. 1:00 360 m 8/8 8/8 - - -
Do, 01.12. 19:00 300 m 8/8 8/8 - - -
Do, 01.12. 13:00 270 m 8/8 8/8 - - -
Do, 01.12. 7:00 150 m 8/8 8/8 - - -
Ortszeit Bedeckungsgrad in Achtel und Wolkenuntergrenze
Sa, 03.12. 1:00 8(90m)
Sa, 03.12. 0:50 8(90m)
Sa, 03.12. 0:40 8
Sa, 03.12. 0:30 8(60m)
Sa, 03.12. 0:20 8(60m)
Sa, 03.12. 0:10 8
Sa, 03.12. 0:00 8(60m)
Fr, 02.12. 23:30 8(30m)
Fr, 02.12. 23:00 8(30m)
Fr, 02.12. 22:30 8(60m)
Fr, 02.12. 22:00 8(90m)
Ortszeit Luftdruck NN (hPa) Tendenz (hPa in 3 Std.)
Sa, 03.12. 1:00 1020 0,0
Fr, 02.12. 19:00 1020 + 0,7
Fr, 02.12. 13:00 1019 - 0,8
Fr, 02.12. 7:00 1020 - 0,6
Fr, 02.12. 1:00 1022 - 0,8
Do, 01.12. 19:00 1023 + 0,1
Do, 01.12. 13:00 1023 - 0,7
Do, 01.12. 7:00 1023 0,0
Ortszeit Luftdruck NN (hPa) Tendenz (hPa in 3 Std.)
Sa, 03.12. 1:00 1020 0,0
Sa, 03.12. 0:50 1020 keine Meldung
Sa, 03.12. 0:40 1020 keine Meldung
Sa, 03.12. 0:30 1020 + 0,1
Sa, 03.12. 0:20 1020 keine Meldung
Sa, 03.12. 0:10 1020 keine Meldung
Sa, 03.12. 0:00 1020 + 0,1
Fr, 02.12. 23:30 1020 + 0,2
Fr, 02.12. 23:00 1020 + 0,1
Fr, 02.12. 22:30 1020 0,0
Fr, 02.12. 22:00 1020 0,0
Ortszeit Schneehöhe (cm)
Sa, 03.12. 1:00 0
Fr, 02.12. 19:00 0
Fr, 02.12. 13:00 0
Fr, 02.12. 7:00 0
Fr, 02.12. 1:00 0
Do, 01.12. 19:00 0
Do, 01.12. 13:00 0
Do, 01.12. 7:00 0
Ortszeit Schneehöhe (cm)
Sa, 03.12. 1:00 0
Sa, 03.12. 0:50 0
Sa, 03.12. 0:40 0
Sa, 03.12. 0:30 0
Sa, 03.12. 0:20 0
Sa, 03.12. 0:10 0
Sa, 03.12. 0:00 0
Fr, 02.12. 23:30 0
Fr, 02.12. 23:00 0
Fr, 02.12. 22:30 0
Fr, 02.12. 22:00 0
Link zu dieser Seite / Seite empfehlen

Das Wetter in ...